KBKL/BKL METAR and TAF weather

Enter ICAO airport designator
Station Type Date Time Source
KBKL METAR 2022/07/03 13:53 UTC NOAA

KBKL 031353Z 36009KT 10SM CLR 24/13 A3016 RMK AO2 SLP208 T02440128


Station Type Date Time Source
KBKL Decoded METAR 2022/07/03 13:53 UTC NOAA

CLEVELAND BURKE LAKEFRONT, OH, United States (KBKL) 41-32N 81-40W 184M
Jul 03, 2022 - 09:53 AM EDT / 2022.07.03 1353 UTC
Wind: from the N (360 degrees) at 10 MPH (9 KT):0
Visibility: 10 mile(s):0
Sky conditions: clear
Temperature: 75.9 F (24.4 C)
Dew Point: 55.0 F (12.8 C)
Relative Humidity: 48%
Pressure (altimeter): 30.16 in. Hg (1021 hPa)
ob: KBKL 031353Z 36009KT 10SM CLR 24/13 A3016 RMK AO2 SLP208 T02440128
cycle: 14

Station Type Date Time Source
KBKL TAF UTC NOAA

Error!

Example: see airport list